Airfield :
LOGIN :

Register | Disclaimer

   EN    FR    IT 

 










Legend :    VFR   Marginal VFR   IFR   Intensive IFR   Very Intensive IFR
Visi :
Ceiling :
>= 8 km
>= 3000ft
5 to 8 km
1000 to 3000 ft
1500m to 5 km
500 to 1000 ft
800 to 1500m
200 to 500 ft
< 800m
< 200 ft
Symbols :   Thunderstorms  Fog  Heavy snow  Heavy precipitations  Wind > 20 kt
SIGMETs :     Misc.  Thunderstorms  Icing  Turbulence  Mountain Waves  Volcanic Ashes







- Airport Elevation : 55 ft
- Download approach charts


EGNO - Warton Preston

CURRENT METAR :
  • 121750Z 15007KT 9000 -RA BKN024 02/01 Q1002

EXPIRED METARs :
  • 121720Z 16008KT 9999 -RA BKN027 02/01 Q1003
  • 121650Z 17007KT 9999 -RA SCT033 02/01 Q1003
  • 121620Z 17007KT 9999 -DZ BKN030 01/00 Q1003
  • 121550Z 15007KT 9999 FEW028 01/M00 Q1003
  • 121520Z 15005KT 120V180 9999 FEW028 SCT040 01/M00 Q1004
  • 121450Z 17006KT 9999 FEW025 SCT040 01/M00 Q1004

TAF TAF EGNO
Valid from the 12 at 15:00 until the 12 at 19:00 UTC


121418Z 1215/1219 16009KT 9999 FEW015
PROB40
TEMPO 1215/1216 7000
TEMPO 1216/1219 6000 -RADZ BKN010
PROB40
TEMPO 1217/1219 18015G25KT 3000 RADZ BKN005
ATIS : +44 1772 856 060
No reported NOTAMs for that airfield.
1 SIGMET reported for the London FIR (EGTT) :
 
Severe turbulence
EGTT SIGMET 03 VALID 121500/121900 EGRR
EGTT LONDON FIR SEV TURB FCST WI N5100 W00726 - N5207 W00519 - N4934 W00416 - N4926 W00456 - N4901 W00703 - N5100 W00726 FL200/420 MOV E 05KT NC=



MET'MAP, your aeronautical weather chart ! - Copyright ORBIFLY December 2007 - Disclaimer

ORBIFLY MET'MAP TEAM :

Programming & Development : Alexandra Zaïnal
Concept & Development : Baudouin d'Aumeries
Co-Development & Prog : Marc-Olivier Méhu
Technical & hardware support : Manuel Goepfert

Contact : metmap@orbifly.com




SOURCES & CREDITS :

   NOAA